Time;durP1;ratioP1;P1;durP2;ratioP2;P2;SDS_P1;SDS_P2;PMS_P1;PMS_P2;Temp;Humidity;BMP_temperature;BMP_pressure;BME280_temperature;BME280_humidity;BME280_pressure;Samples;Min_cycle;Max_cycle;Signal;HPM_P1;HPM_P2
2022/10/25 00:01:26;;;;;;;;;;;;;;;13.05;99.20;101088.84;5027771;28;19917;-58
2022/10/25 00:03:51;;;;;;;;;;;;;;;13.08;99.25;101091.16;5028229;28;19917;-58
2022/10/25 00:06:16;;;;;;;;;;;;;;;13.11;99.46;101088.13;5027340;28;19917;-58
2022/10/25 00:08:42;;;;;;;;;;;;;;;13.15;99.45;101091.25;5019952;28;19921;-58
2022/10/25 00:11:09;;;;;;;;;;;;;;;13.17;99.10;101092.75;5017148;28;20008;-58
2022/10/25 00:13:34;;;;;;;;;;;;;;;13.19;99.07;101089.91;5016828;28;19917;-58
2022/10/25 00:15:59;;;;;;;;;;;;;;;13.19;98.78;101089.91;5025917;28;19917;-58
2022/10/25 00:18:25;;;;;;;;;;;;;;;13.18;98.78;101102.41;5028051;28;19913;-58
2022/10/25 00:20:50;;;;;;;;;;;;;;;13.18;98.81;101098.91;5025291;28;19924;-58
2022/10/25 00:23:15;;;;;;;;;;;;;;;13.22;98.75;101094.88;5027935;28;19944;-57
2022/10/25 00:25:40;;;;;;;;;;;;;;;13.20;98.32;101100.41;5027134;28;20232;-58
2022/10/25 00:28:05;;;;;;;;;;;;;;;13.19;98.43;101109.41;5028102;28;19959;-58
2022/10/25 00:30:31;;;;;;;;;;;;;;;13.20;98.08;101104.91;5041440;28;19932;-58
2022/10/25 00:32:56;;;;;;;;;;;;;;;13.21;98.44;101104.72;5027563;28;20240;-58
2022/10/25 00:35:21;;;;;;;;;;;;;;;13.25;98.02;101110.53;5026171;28;19917;-58
2022/10/25 00:37:46;;;;;;;;;;;;;;;13.27;98.34;101112.00;5027716;28;19940;-59
2022/10/25 00:40:12;;;;;;;;;;;;;;;13.29;97.95;101114.47;5016707;28;19920;-59
2022/10/25 00:42:37;;;;;;;;;;;;;;;13.31;98.20;101121.31;5030481;28;19928;-58
2022/10/25 00:45:12;;;;;;;;;;;;;;;13.35;97.99;101118.28;5027402;28;19920;-58
2022/10/25 00:47:49;;;;;;;;;;;;;;;13.35;97.51;101118.28;5018494;28;19917;-58
2022/10/25 00:50:18;;;;;;;;;;;;;;;13.34;97.68;101122.78;5014955;28;19919;-58
2022/10/25 00:52:44;;;;;;;;;;;;;;;13.34;97.86;101114.78;5025132;28;19925;-57
2022/10/25 00:55:11;;;;;;;;;;;;;;;13.34;97.75;101122.78;5030221;28;19917;-58
2022/10/25 00:57:43;;;;;;;;;;;;;;;13.33;97.77;101113.97;5025248;28;19917;-59
2022/10/25 01:00:09;;;;;;;;;;;;;;;13.35;97.91;101115.63;5034747;28;19996;-59
2022/10/25 01:02:34;;;;;;;;;;;;;;;13.37;97.56;101118.94;5029841;28;20016;-58
2022/10/25 01:04:59;;;;;;;;;;;;;;;13.39;97.57;101112.41;5030154;28;19917;-58
2022/10/25 01:07:25;;;;;;;;;;;;;;;13.41;97.74;101118.38;5030663;28;20361;-58
2022/10/25 01:09:50;;;;;;;;;;;;;;;13.42;97.68;101105.88;5030569;28;19997;-58
2022/10/25 01:12:16;;;;;;;;;;;;;;;13.45;97.48;101119.66;5030938;28;19920;-56
2022/10/25 01:14:42;;;;;;;;;;;;;;;13.50;97.23;101113.78;5031158;28;19923;-58
2022/10/25 01:17:07;;;;;;;;;;;;;;;13.51;97.17;101126.94;5030626;28;19971;-57
2022/10/25 01:19:35;;;;;;;;;;;;;;;13.53;97.23;101114.22;5036115;28;19921;-57
2022/10/25 01:22:04;;;;;;;;;;;;;;;13.56;96.74;101131.72;5030282;28;19986;-58
2022/10/25 01:24:59;;;;;;;;;;;;;;;13.61;96.94;101132.03;5036056;28;19964;-58
2022/10/25 01:27:33;;;;;;;;;;;;;;;13.59;96.63;101134.03;5028934;28;19920;-58
2022/10/25 01:30:11;;;;;;;;;;;;;;;13.58;96.32;101133.19;5025960;28;19949;-59
2022/10/25 01:32:45;;;;;;;;;;;;;;;13.58;96.20;101132.34;5029553;28;19944;-58
2022/10/25 01:35:19;;;;;;;;;;;;;;;13.59;96.45;101144.72;5021769;28;20015;-58
2022/10/25 01:37:51;;;;;;;;;;;;;;;13.58;96.02;101135.84;5029524;28;20005;-58
2022/10/25 01:40:22;;;;;;;;;;;;;;;13.56;96.31;101140.56;5034857;28;19943;-58
2022/10/25 01:42:59;;;;;;;;;;;;;;;13.54;95.91;101144.41;5029518;28;19917;-57
2022/10/25 01:45:27;;;;;;;;;;;;;;;13.52;96.08;101152.59;5024662;28;20381;-57
2022/10/25 01:47:58;;;;;;;;;;;;;;;13.50;95.88;101154.63;5028111;28;20005;-58
2022/10/25 01:50:25;;;;;;;;;;;;;;;13.50;95.92;101143.13;5029401;28;19959;-59
2022/10/25 01:52:50;;;;;;;;;;;;;;;13.48;95.86;101153.97;5031374;28;19928;-58
2022/10/25 01:55:17;;;;;;;;;;;;;;;13.44;95.97;101142.00;5030831;28;19917;-58
2022/10/25 01:57:42;;;;;;;;;;;;;;;13.44;95.96;101142.00;5030131;28;19913;-58
2022/10/25 02:00:13;;;;;;;;;;;;;;;13.40;95.98;101153.25;5030179;28;20142;-58
2022/10/25 02:02:47;;;;;;;;;;;;;;;13.39;96.31;101152.41;5029443;28;19924;-58
2022/10/25 02:05:15;;;;;;;;;;;;;;;13.41;95.97;101146.88;5031335;28;19913;-58
2022/10/25 02:08:00;;;;;;;;;;;;;;;13.41;96.23;101163.72;5032961;28;19920;-58
2022/10/25 02:10:37;;;;;;;;;;;;;;;13.40;96.17;101155.91;5024396;28;19913;-58
2022/10/25 02:13:25;;;;;;;;;;;;;;;13.40;96.30;101159.41;5028147;28;19925;-58
2022/10/25 02:16:02;;;;;;;;;;;;;;;13.41;96.42;101158.38;5025206;28;20412;-58
2022/10/25 02:18:29;;;;;;;;;;;;;;;13.40;96.01;101161.25;5035120;28;20003;-58
2022/10/25 02:20:55;;;;;;;;;;;;;;;13.41;96.00;101161.06;5027314;28;19913;-59
2022/10/25 02:23:22;;;;;;;;;;;;;;;13.41;96.05;101166.41;5029954;28;19913;-58
2022/10/25 02:25:48;;;;;;;;;;;;;;;13.40;96.28;101164.75;5024271;28;19974;-59
2022/10/25 02:28:14;;;;;;;;;;;;;;;13.39;96.21;101164.91;5028426;28;19913;-58
2022/10/25 02:30:41;;;;;;;;;;;;;;;13.37;96.48;101162.44;5021129;28;20394;-58
2022/10/25 02:33:06;;;;;;;;;;;;;;;13.35;96.09;101163.63;5036633;28;19917;-58
2022/10/25 02:35:31;;;;;;;;;;;;;;;13.32;96.27;101170.97;5029458;28;19914;-57
2022/10/25 02:37:57;;;;;;;;;;;;;;;13.30;96.42;101164.16;5026857;28;20258;-57
2022/10/25 02:40:22;;;;;;;;;;;;;;;13.27;96.14;101162.66;5019935;28;19913;-58
2022/10/25 02:42:48;;;;;;;;;;;;;;;13.25;96.42;101174.53;5028238;28;19936;-57
2022/10/25 02:45:13;;;;;;;;;;;;;;;13.24;96.17;101167.53;5028761;28;20012;-58
2022/10/25 02:47:38;;;;;;;;;;;;;;;13.20;96.38;101168.91;5028897;28;19920;-57
2022/10/25 02:50:04;;;;;;;;;;;;;;;13.17;96.17;101174.56;5023996;28;20381;-59
2022/10/25 02:52:30;;;;;;;;;;;;;;;13.12;96.40;101172.44;5028895;28;19925;-58
2022/10/25 02:54:55;;;;;;;;;;;;;;;13.08;96.60;101173.81;5029006;28;19917;-58
2022/10/25 02:57:20;;;;;;;;;;;;;;;13.06;96.37;101175.00;5022441;28;20003;-57
2022/10/25 02:59:45;;;;;;;;;;;;;;;13.02;96.49;101169.19;5027758;28;19917;-59
2022/10/25 03:02:10;;;;;;;;;;;;;;;12.97;96.75;101166.22;5025824;28;20388;-58
2022/10/25 03:04:35;;;;;;;;;;;;;;;12.91;96.65;101174.94;5018142;28;19939;-58
2022/10/25 03:07:01;;;;;;;;;;;;;;;12.87;96.87;101184.28;5028305;28;19917;-58
2022/10/25 03:09:26;;;;;;;;;;;;;;;12.83;96.98;101185.66;5027884;28;20054;-58
2022/10/25 03:11:51;;;;;;;;;;;;;;;12.81;97.47;101182.34;5029377;28;19913;-59
2022/10/25 03:14:16;;;;;;;;;;;;;;;12.81;97.44;101193.00;5020218;28;20014;-58
2022/10/25 03:16:41;;;;;;;;;;;;;;;12.78;97.74;101191.53;5021331;28;19913;-58
2022/10/25 03:19:06;;;;;;;;;;;;;;;12.78;97.60;101188.84;5032493;28;19920;-57
2022/10/25 03:21:32;;;;;;;;;;;;;;;12.79;98.26;101195.84;5031003;28;19917;-58
2022/10/25 03:23:57;;;;;;;;;;;;;;;12.77;98.11;101203.19;5028890;28;20300;-59
2022/10/25 03:26:22;;;;;;;;;;;;;;;12.75;98.16;101199.88;5031645;28;19924;-58
2022/10/25 03:28:47;;;;;;;;;;;;;;;12.74;98.37;101200.06;5025836;28;20408;-57
2022/10/25 03:31:13;;;;;;;;;;;;;;;12.72;98.18;101205.53;5026921;28;19917;-57
2022/10/25 03:33:39;;;;;;;;;;;;;;;12.70;98.10;101207.53;5028050;28;19951;-57
2022/10/25 03:36:04;;;;;;;;;;;;;;;12.69;98.29;101209.38;5027949;28;20377;-58
2022/10/25 03:38:29;;;;;;;;;;;;;;;12.66;98.28;101215.06;5031020;28;19913;-57
2022/10/25 03:40:55;;;;;;;;;;;;;;;12.63;98.19;101215.41;5027516;28;19916;-58
2022/10/25 03:43:20;;;;;;;;;;;;;;;12.60;98.52;101220.25;5028174;28;20288;-58
2022/10/25 03:45:45;;;;;;;;;;;;;;;12.58;98.49;101217.78;5033788;28;20404;-57
2022/10/25 03:48:10;;;;;;;;;;;;;;;12.55;98.57;101234.09;5034053;28;19917;-58
2022/10/25 03:50:36;;;;;;;;;;;;;;;12.53;98.65;101224.63;5028569;28;20415;-58
2022/10/25 03:53:02;;;;;;;;;;;;;;;12.51;98.50;101234.63;5029970;28;20365;-57
2022/10/25 03:55:27;;;;;;;;;;;;;;;12.47;98.42;101228.81;5028433;28;19935;-58
2022/10/25 03:57:52;;;;;;;;;;;;;;;12.47;98.81;101238.66;5028423;28;20341;-58
2022/10/25 04:00:17;;;;;;;;;;;;;;;12.46;99.04;101237.81;5025679;28;19921;-58
2022/10/25 04:02:42;;;;;;;;;;;;;;;12.44;98.73;101242.50;5027112;28;20002;-58
2022/10/25 04:05:08;;;;;;;;;;;;;;;12.43;98.88;101238.13;5033553;28;19925;-58
2022/10/25 04:07:33;;;;;;;;;;;;;;;12.43;99.32;101237.31;5028246;28;19948;-58
2022/10/25 04:09:58;;;;;;;;;;;;;;;12.41;99.21;101234.81;5017661;28;19917;-57
2022/10/25 04:12:23;;;;;;;;;;;;;;;12.39;99.05;101235.00;5018125;28;19924;-57
2022/10/25 04:14:48;;;;;;;;;;;;;;;12.38;98.95;101241.31;5030082;28;19916;-57
2022/10/25 04:17:13;;;;;;;;;;;;;;;12.37;99.31;101238.84;5027705;28;20460;-58
2022/10/25 04:19:39;;;;;;;;;;;;;;;12.38;99.50;101237.84;5019227;28;19916;-58
2022/10/25 04:22:04;;;;;;;;;;;;;;;12.36;99.52;101246.00;5024158;28;20382;-58
2022/10/25 04:24:29;;;;;;;;;;;;;;;12.37;99.42;101246.81;5017021;28;20464;-58
2022/10/25 04:26:54;;;;;;;;;;;;;;;12.35;99.53;101252.31;5026830;28;19917;-57
2022/10/25 04:29:20;;;;;;;;;;;;;;;12.36;99.38;101269.13;5030895;28;19913;-58
2022/10/25 04:31:45;;;;;;;;;;;;;;;12.36;99.46;101255.81;5031068;28;19924;-58
2022/10/25 04:34:10;;;;;;;;;;;;;;;12.35;99.42;101254.16;5029490;28;20019;-58
2022/10/25 04:36:35;;;;;;;;;;;;;;;12.33;99.56;101253.50;5024834;28;19920;-58
2022/10/25 04:39:00;;;;;;;;;;;;;;;12.32;99.41;101260.66;5046332;28;20395;-58
2022/10/25 04:41:25;;;;;;;;;;;;;;;12.32;99.48;101266.00;5030081;28;19975;-58
2022/10/25 04:43:51;;;;;;;;;;;;;;;12.32;99.54;101267.81;5032439;28;20430;-58
2022/10/25 04:46:17;;;;;;;;;;;;;;;12.33;99.59;101262.31;5030651;28;19917;-57
2022/10/25 04:48:42;;;;;;;;;;;;;;;12.29;99.51;101266.34;5033983;28;19913;-58
2022/10/25 04:51:08;;;;;;;;;;;;;;;12.27;99.70;101271.00;5030814;28;19913;-58
2022/10/25 04:53:33;;;;;;;;;;;;;;;12.25;99.68;101269.50;5027570;28;19921;-57
2022/10/25 04:55:59;;;;;;;;;;;;;;;12.22;99.77;101272.53;5030457;28;19956;-58
2022/10/25 04:58:25;;;;;;;;;;;;;;;12.21;99.68;101268.19;5030820;28;19917;-58
2022/10/25 05:00:51;;;;;;;;;;;;;;;12.19;99.92;101262.22;5025364;28;20299;-58
2022/10/25 05:03:16;;;;;;;;;;;;;;;12.18;99.80;101269.38;5031444;28;20012;-58
2022/10/25 05:05:41;;;;;;;;;;;;;;;12.14;100.00;101260.03;5032366;28;19913;-57
2022/10/25 05:08:06;;;;;;;;;;;;;;;12.13;100.00;101271.69;5031078;28;20270;-59
2022/10/25 05:10:32;;;;;;;;;;;;;;;12.13;100.00;101270.88;5027373;28;20000;-58
2022/10/25 05:12:57;;;;;;;;;;;;;;;12.09;100.00;101273.88;5030422;28;20305;-58
2022/10/25 05:15:22;;;;;;;;;;;;;;;12.10;100.00;101278.19;5026033;28;20004;-58
2022/10/25 05:17:47;;;;;;;;;;;;;;;12.11;100.00;101287.00;5027680;28;19913;-58
2022/10/25 05:20:12;;;;;;;;;;;;;;;12.09;100.00;101287.19;5022986;28;19945;-57
2022/10/25 05:22:37;;;;;;;;;;;;;;;12.08;100.00;101293.50;5032219;28;19962;-58
2022/10/25 05:25:03;;;;;;;;;;;;;;;12.09;100.00;101295.16;5031344;28;19925;-58
2022/10/25 05:27:28;;;;;;;;;;;;;;;12.08;100.00;101304.16;5031430;28;19921;-58
2022/10/25 05:29:53;;;;;;;;;;;;;;;12.06;100.00;101300.81;5029880;28;19924;-57
2022/10/25 05:32:18;;;;;;;;;;;;;;;12.04;100.00;101304.66;5029909;28;19996;-59
2022/10/25 05:34:43;;;;;;;;;;;;;;;12.03;100.00;101301.16;5024545;28;20292;-57
2022/10/25 05:37:09;;;;;;;;;;;;;;;12.01;100.00;101308.50;5030012;28;19917;-58
2022/10/25 05:39:34;;;;;;;;;;;;;;;12.00;100.00;101301.50;5029250;28;19967;-58
2022/10/25 05:42:01;;;;;;;;;;;;;;;12.02;100.00;101299.50;5027149;28;19921;-58
2022/10/25 05:44:26;;;;;;;;;;;;;;;12.01;100.00;101305.84;5019237;28;19913;-58
2022/10/25 05:46:51;;;;;;;;;;;;;;;12.01;100.00;101313.81;5031124;28;19919;-58
2022/10/25 05:49:16;;;;;;;;;;;;;;;12.00;100.00;101308.66;5031009;28;19919;-57
2022/10/25 05:51:42;;;;;;;;;;;;;;;12.00;100.00;101311.31;5028869;28;20499;-58
2022/10/25 05:54:10;;;;;;;;;;;;;;;12.00;100.00;101309.50;5030194;28;19929;-59
2022/10/25 05:56:36;;;;;;;;;;;;;;;12.01;100.00;101323.63;5025026;28;19966;-57
2022/10/25 05:59:07;;;;;;;;;;;;;;;12.00;100.00;101325.47;5028843;28;20379;-57
2022/10/25 06:01:33;;;;;;;;;;;;;;;11.98;100.00;101324.81;5030031;28;19913;-57
2022/10/25 06:03:58;;;;;;;;;;;;;;;11.92;100.00;101322.81;5021956;28;20356;-56
2022/10/25 06:06:23;;;;;;;;;;;;;;;11.93;100.00;101335.13;5027344;28;19921;-58
2022/10/25 06:08:48;;;;;;;;;;;;;;;11.93;100.00;101335.13;5028605;28;19916;-58
2022/10/25 06:11:15;;;;;;;;;;;;;;;11.93;100.00;101343.13;5028167;28;19920;-58
2022/10/25 06:13:40;;;;;;;;;;;;;;;11.94;100.00;101341.28;5028237;28;19952;-58
2022/10/25 06:16:07;;;;;;;;;;;;;;;11.97;100.00;101348.94;5026263;28;19960;-57
2022/10/25 06:18:33;;;;;;;;;;;;;;;11.96;100.00;101348.09;5022984;28;19924;-58
2022/10/25 06:21:06;;;;;;;;;;;;;;;11.97;100.00;101352.44;5020343;28;20399;-58
2022/10/25 06:23:31;;;;;;;;;;;;;;;11.98;100.00;101354.09;5027505;28;19978;-58
2022/10/25 06:26:00;;;;;;;;;;;;;;;12.01;100.00;101363.56;5028989;28;20881;-58
2022/10/25 06:28:26;;;;;;;;;;;;;;;11.99;100.00;101357.59;5024991;28;19920;-58
2022/10/25 06:30:51;;;;;;;;;;;;;;;11.97;100.00;101371.06;5028882;28;19917;-57
2022/10/25 06:33:16;;;;;;;;;;;;;;;11.96;100.00;101374.72;5028095;28;19924;-57
2022/10/25 06:35:41;;;;;;;;;;;;;;;11.95;100.00;101375.72;5033913;28;19914;-57
2022/10/25 06:38:06;;;;;;;;;;;;;;;11.96;100.00;101364.06;5031322;28;20004;-58
2022/10/25 06:40:32;;;;;;;;;;;;;;;11.95;100.00;101372.22;5027443;28;19913;-58
2022/10/25 06:42:57;;;;;;;;;;;;;;;11.96;100.00;101379.22;5019537;28;19913;-58
2022/10/25 06:45:22;;;;;;;;;;;;;;;11.95;100.00;101369.56;5021528;28;20642;-57
2022/10/25 06:47:48;;;;;;;;;;;;;;;11.95;100.00;101375.72;5029673;28;19919;-58
2022/10/25 06:50:13;;;;;;;;;;;;;;;11.96;100.00;101380.03;5028855;28;20273;-58
2022/10/25 06:52:38;;;;;;;;;;;;;;;11.99;100.00;101381.53;5031597;28;19929;-57
2022/10/25 06:55:03;;;;;;;;;;;;;;;12.02;100.00;101382.03;5030675;28;19935;-57
2022/10/25 06:57:28;;;;;;;;;;;;;;;12.05;100.00;101383.53;5026288;28;19925;-58
2022/10/25 06:59:54;;;;;;;;;;;;;;;12.07;100.00;101390.34;5022233;28;20012;-58
2022/10/25 07:02:19;;;;;;;;;;;;;;;12.09;100.00;101393.66;5023341;28;22045;-58
2022/10/25 07:04:44;;;;;;;;;;;;;;;12.13;100.00;101396.00;5019654;28;19918;-58
2022/10/25 07:07:13;;;;;;;;;;;;;;;12.16;100.00;101391.19;5026513;28;19963;-58
2022/10/25 07:09:38;;;;;;;;;;;;;;;12.19;100.00;101400.69;5026478;28;20499;-58
2022/10/25 07:12:04;;;;;;;;;;;;;;;12.21;100.00;101412.81;5029107;28;19909;-56
2022/10/25 07:14:29;;;;;;;;;;;;;;;12.25;100.00;101410.66;5028110;28;19983;-57
2022/10/25 07:16:54;;;;;;;;;;;;;;;12.27;100.00;101413.97;5028752;28;19940;-58
2022/10/25 07:19:19;;;;;;;;;;;;;;;12.29;100.00;101412.81;5034699;28;19920;-58
2022/10/25 07:21:44;;;;;;;;;;;;;;;12.30;100.00;101418.97;5033365;28;20635;-58
2022/10/25 07:24:10;;;;;;;;;;;;;;;12.33;100.00;101421.28;5030386;28;19917;-58
2022/10/25 07:26:35;;;;;;;;;;;;;;;12.35;100.00;101419.28;5029245;28;19913;-58
2022/10/25 07:29:01;;;;;;;;;;;;;;;12.39;100.00;101413.44;5031425;28;20490;-58
2022/10/25 07:31:28;;;;;;;;;;;;;;;12.44;100.00;101420.97;5025983;28;19924;-58
2022/10/25 07:33:56;;;;;;;;;;;;;;;12.50;100.00;101430.94;5027211;28;19982;-58
2022/10/25 07:36:21;;;;;;;;;;;;;;;12.55;99.76;101427.78;5027009;28;20380;-58
2022/10/25 07:38:46;;;;;;;;;;;;;;;12.59;99.62;101440.56;5031826;28;19983;-58
2022/10/25 07:41:11;;;;;;;;;;;;;;;12.64;99.33;101432.06;5030383;28;19948;-58
2022/10/25 07:43:37;;;;;;;;;;;;;;;12.65;99.22;101439.91;5019639;28;19917;-58
2022/10/25 07:46:02;;;;;;;;;;;;;;;12.69;99.23;101435.88;5020463;28;19928;-57
2022/10/25 07:48:27;;;;;;;;;;;;;;;12.71;98.98;101433.88;5023699;28;19916;-58
2022/10/25 07:50:52;;;;;;;;;;;;;;;12.75;98.88;101444.22;5026408;28;20566;-58
2022/10/25 07:53:18;;;;;;;;;;;;;;;12.77;98.66;101443.06;5032437;28;20011;-58
2022/10/25 07:55:48;;;;;;;;;;;;;;;12.80;98.68;101447.22;5029091;28;19917;-59
2022/10/25 07:58:13;;;;;;;;;;;;;;;12.84;98.52;101453.88;5024237;28;19984;-59
2022/10/25 08:00:39;;;;;;;;;;;;;;;12.84;98.42;101448.53;5028330;28;20380;-58
2022/10/25 08:03:04;;;;;;;;;;;;;;;12.86;98.13;101452.69;5028266;28;19955;-57
2022/10/25 08:05:29;;;;;;;;;;;;;;;12.90;98.00;101458.50;5032461;28;20383;-58
2022/10/25 08:07:54;;;;;;;;;;;;;;;12.90;97.89;101455.84;5031347;28;19913;-58
2022/10/25 08:10:20;;;;;;;;;;;;;;;12.89;97.76;101463.00;5031702;28;20050;-58
2022/10/25 08:12:45;;;;;;;;;;;;;;;12.90;97.63;101463.84;5022830;28;19917;-59
2022/10/25 08:15:10;;;;;;;;;;;;;;;12.88;97.54;101463.19;5024990;28;20480;-58
2022/10/25 08:17:36;;;;;;;;;;;;;;;12.90;97.25;101467.34;5028743;28;19917;-59
2022/10/25 08:20:01;;;;;;;;;;;;;;;12.90;97.35;101462.00;5031022;28;19979;-58
2022/10/25 08:22:26;;;;;;;;;;;;;;;12.95;97.54;101466.81;5031605;28;20415;-58
2022/10/25 08:24:51;;;;;;;;;;;;;;;12.96;97.04;101466.66;5033048;28;19920;-59
2022/10/25 08:27:16;;;;;;;;;;;;;;;13.00;97.52;101457.28;5029756;28;20404;-58
2022/10/25 08:29:42;;;;;;;;;;;;;;;13.07;97.66;101462.81;5030465;28;19921;-58
2022/10/25 08:32:07;;;;;;;;;;;;;;;13.11;97.29;101461.44;5028709;28;19929;-58
2022/10/25 08:34:32;;;;;;;;;;;;;;;13.13;97.17;101467.44;5031665;28;19927;-58
2022/10/25 08:36:57;;;;;;;;;;;;;;;13.15;96.92;101460.09;5030409;28;19932;-58
2022/10/25 08:39:22;;;;;;;;;;;;;;;13.19;96.72;101468.63;5030870;28;19921;-58
2022/10/25 08:41:55;;;;;;;;;;;;;;;13.20;96.66;101473.78;5030825;28;20000;-58
2022/10/25 08:44:39;;;;;;;;;;;;;;;13.20;96.05;101476.44;5023899;28;19925;-58
2022/10/25 08:47:08;;;;;;;;;;;;;;;13.23;96.40;101475.25;5031361;28;19917;-58
2022/10/25 08:50:00;;;;;;;;;;;;;;;13.24;96.22;101477.75;5035474;28;20452;-58
2022/10/25 08:52:28;;;;;;;;;;;;;;;13.26;95.71;101481.09;5014979;28;19928;-58
2022/10/25 08:54:56;;;;;;;;;;;;;;;13.27;95.68;101493.41;5032040;28;20007;-58
2022/10/25 08:57:26;;;;;;;;;;;;;;;13.29;95.65;101479.91;5025431;28;19940;-57
2022/10/25 08:59:53;;;;;;;;;;;;;;;13.35;95.69;101497.06;5032392;28;19928;-58
2022/10/25 09:02:22;;;;;;;;;;;;;;;13.39;95.82;101488.56;5031863;28;19996;-58
2022/10/25 09:04:47;;;;;;;;;;;;;;;13.44;95.71;101488.03;5030156;28;19917;-55
2022/10/25 09:07:27;;;;;;;;;;;;;;;13.49;95.83;101499.00;5031138;28;19921;-58
2022/10/25 09:10:03;;;;;;;;;;;;;;;13.53;95.75;101497.66;5032471;28;20374;-58
2022/10/25 09:12:31;;;;;;;;;;;;;;;13.57;95.31;101498.97;5033943;28;20411;-58
2022/10/25 09:15:05;;;;;;;;;;;;;;;13.60;94.85;101504.81;5030709;28;20011;-58
2022/10/25 09:17:37;;;;;;;;;;;;;;;13.67;94.50;101506.78;5022991;28;19921;-58
2022/10/25 09:20:10;;;;;;;;;;;;;;;13.77;94.80;101510.06;5030391;28;19917;-58
2022/10/25 09:22:44;;;;;;;;;;;;;;;13.82;94.04;101505.00;5021775;28;19914;-59
2022/10/25 09:25:21;;;;;;;;;;;;;;;13.83;93.68;101506.69;5016462;28;19928;-58
2022/10/25 09:27:53;;;;;;;;;;;;;;;13.87;93.79;101516.81;5028073;28;19960;-58
2022/10/25 09:30:19;;;;;;;;;;;;;;;13.89;93.56;101525.53;5030546;28;19928;-58
2022/10/25 09:32:46;;;;;;;;;;;;;;;13.90;93.15;101521.84;5025072;28;19917;-59
2022/10/25 09:35:16;;;;;;;;;;;;;;;13.87;92.88;101530.19;5019573;28;19914;-57
2022/10/25 09:37:50;;;;;;;;;;;;;;;13.88;92.86;101531.03;5023319;28;19925;-58
2022/10/25 09:40:21;;;;;;;;;;;;;;;13.95;92.97;101530.16;5029535;28;19924;-59
2022/10/25 09:42:57;;;;;;;;;;;;;;;14.04;93.14;101527.44;5029334;28;19920;-58
2022/10/25 09:45:44;;;;;;;;;;;;;;;14.11;92.86;101533.72;5021971;28;20388;-58
2022/10/25 09:48:24;;;;;;;;;;;;;;;14.13;92.07;101532.53;5030188;28;19928;-58
2022/10/25 09:50:54;;;;;;;;;;;;;;;14.15;91.87;101530.50;5026667;28;19913;-58
2022/10/25 09:53:19;;;;;;;;;;;;;;;14.17;92.19;101533.03;5028720;28;19921;-57
2022/10/25 09:55:47;;;;;;;;;;;;;;;14.21;92.02;101534.34;5030743;28;19974;-58
2022/10/25 09:58:38;;;;;;;;;;;;;;;14.21;91.77;101537.84;5029822;28;19974;-59
2022/10/25 10:01:05;;;;;;;;;;;;;;;14.17;90.68;101536.53;5030026;28;19921;-58
2022/10/25 10:03:32;;;;;;;;;;;;;;;14.15;90.60;101532.34;5029179;28;19924;-57
2022/10/25 10:06:13;;;;;;;;;;;;;;;14.19;90.35;101541.69;5033230;28;20078;-58
2022/10/25 10:08:39;;;;;;;;;;;;;;;14.23;90.57;101535.00;5030375;28;20040;-58
2022/10/25 10:11:05;;;;;;;;;;;;;;;14.28;90.78;101543.31;5029887;28;19913;-59
2022/10/25 10:13:46;;;;;;;;;;;;;;;14.31;90.45;101555.47;5027481;28;19963;-58
2022/10/25 10:16:46;;;;;;;;;;;;;;;14.32;90.04;101547.28;5030139;28;19913;-58
2022/10/25 10:19:14;;;;;;;;;;;;;;;14.34;90.23;101563.13;4977926;28;19917;-58
2022/10/25 10:21:43;;;;;;;;;;;;;;;14.31;90.20;101561.66;5016710;28;19921;-58
2022/10/25 10:24:17;;;;;;;;;;;;;;;14.30;90.33;101554.63;5021000;28;19917;-58
2022/10/25 10:26:45;;;;;;;;;;;;;;;14.32;90.19;101565.97;5021729;28;19956;-58
2022/10/25 10:29:13;;;;;;;;;;;;;;;14.32;90.40;101568.66;5033657;28;19932;-56
2022/10/25 10:31:42;;;;;;;;;;;;;;;14.30;90.52;101568.00;5026462;28;19917;-58
2022/10/25 10:34:22;;;;;;;;;;;;;;;14.31;89.98;101567.00;5022990;28;19930;-57
2022/10/25 10:36:59;;;;;;;;;;;;;;;14.31;89.89;101560.81;5025640;28;20650;-58
2022/10/25 10:39:25;;;;;;;;;;;;;;;14.32;90.53;101565.97;5026353;28;19917;-59
2022/10/25 10:42:03;;;;;;;;;;;;;;;14.37;90.38;101565.44;5021412;28;19925;-57
2022/10/25 10:44:33;;;;;;;;;;;;;;;14.40;90.06;101570.44;5019299;28;19929;-58
2022/10/25 10:46:58;;;;;;;;;;;;;;;14.46;90.09;101577.78;5023795;28;19928;-58
2022/10/25 10:49:30;;;;;;;;;;;;;;;14.54;90.69;101578.56;5022767;28;19920;-58
2022/10/25 10:51:55;;;;;;;;;;;;;;;14.56;90.19;101575.69;5025564;28;19917;-58
2022/10/25 10:54:21;;;;;;;;;;;;;;;14.56;89.82;101573.84;5032262;28;20384;-57
2022/10/25 10:57:02;;;;;;;;;;;;;;;14.53;88.99;101576.06;5026318;28;20431;-58
2022/10/25 10:59:49;;;;;;;;;;;;;;;14.47;88.83;101572.25;5023706;28;19924;-58
2022/10/25 11:02:27;;;;;;;;;;;;;;;14.49;89.23;101580.09;5030537;28;20000;-57
2022/10/25 11:04:53;;;;;;;;;;;;;;;14.52;89.27;101572.56;5027742;28;19917;-59
2022/10/25 11:07:27;;;;;;;;;;;;;;;14.57;89.46;101566.66;5030581;28;19921;-58
2022/10/25 11:10:10;;;;;;;;;;;;;;;14.68;89.20;101576.09;5026997;28;19967;-58
2022/10/25 11:12:35;;;;;;;;;;;;;;;14.78;89.14;101569.50;5026886;28;19921;-58
2022/10/25 11:15:00;;;;;;;;;;;;;;;14.88;88.50;101578.09;5024506;28;19917;-59
2022/10/25 11:17:29;;;;;;;;;;;;;;;14.99;87.99;101565.31;5027121;28;20384;-58
2022/10/25 11:20:01;;;;;;;;;;;;;;;15.05;86.52;101567.28;5029941;28;19940;-59
2022/10/25 11:22:33;;;;;;;;;;;;;;;15.07;85.73;101574.09;5023979;28;19920;-59
2022/10/25 11:25:07;;;;;;;;;;;;;;;15.11;85.97;101582.59;5035059;28;19916;-59
2022/10/25 11:27:41;;;;;;;;;;;;;;;15.13;85.50;101581.38;5028097;28;20488;-58
2022/10/25 11:30:19;;;;;;;;;;;;;;;15.17;84.92;101576.50;5024470;28;19924;-58
2022/10/25 11:32:47;;;;;;;;;;;;;;;15.17;84.22;101579.19;5023509;28;20004;-57
2022/10/25 11:35:27;;;;;;;;;;;;;;;15.25;84.73;101581.75;5024991;28;19932;-56
2022/10/25 11:38:01;;;;;;;;;;;;;;;15.38;84.41;101571.28;5026387;28;20007;-58
2022/10/25 11:40:31;;;;;;;;;;;;;;;15.59;84.00;101578.56;5026289;28;20273;-58
2022/10/25 11:43:04;;;;;;;;;;;;;;;15.74;82.37;101567.88;5025668;28;20012;-59
2022/10/25 11:45:33;;;;;;;;;;;;;;;15.82;81.88;101572.28;5022605;28;20185;-59
2022/10/25 11:48:10;;;;;;;;;;;;;;;15.89;81.78;101579.38;5029813;28;20288;-58
2022/10/25 11:50:46;;;;;;;;;;;;;;;15.89;80.79;101581.22;5027977;28;19924;-59
2022/10/25 11:53:25;;;;;;;;;;;;;;;15.84;80.90;101576.44;5022996;28;19917;-57
2022/10/25 11:56:00;;;;;;;;;;;;;;;15.85;80.85;101572.72;5027795;28;20007;-58
2022/10/25 11:58:34;;;;;;;;;;;;;;;15.92;80.43;101576.34;5034193;28;20400;-58
2022/10/25 12:01:14;;;;;;;;;;;;;;;15.82;80.09;101570.44;5025010;28;20471;-58
2022/10/25 12:03:42;;;;;;;;;;;;;;;15.77;80.62;101575.53;5029129;28;19979;-58
2022/10/25 12:06:22;;;;;;;;;;;;;;;15.72;81.04;101564.53;5025395;28;19917;-58
2022/10/25 12:09:05;;;;;;;;;;;;;;;15.60;80.08;101568.69;5025469;28;19956;-58
2022/10/25 12:11:32;;;;;;;;;;;;;;;15.53;80.22;101571.25;5025731;28;19921;-58
2022/10/25 12:14:05;;;;;;;;;;;;;;;15.53;80.10;101562.41;5024756;28;19929;-58
2022/10/25 12:16:31;;;;;;;;;;;;;;;15.71;80.12;101566.41;5022394;28;20303;-58
2022/10/25 12:18:56;;;;;;;;;;;;;;;15.88;79.64;101571.53;5019648;28;20393;-58
2022/10/25 12:21:26;;;;;;;;;;;;;;;16.03;78.58;101575.03;5020059;28;19931;-58
2022/10/25 12:23:52;;;;;;;;;;;;;;;16.01;77.90;101567.16;5020278;28;20372;-58
2022/10/25 12:26:33;;;;;;;;;;;;;;;15.97;77.94;101576.59;5021579;28;19928;-58
2022/10/25 12:29:01;;;;;;;;;;;;;;;15.96;78.41;101579.47;5023942;28;19917;-58
2022/10/25 12:31:28;;;;;;;;;;;;;;;15.97;78.35;101571.25;5024359;28;19917;-59
2022/10/25 12:34:02;;;;;;;;;;;;;;;16.11;79.21;101569.53;5026036;28;19925;-57
2022/10/25 12:36:34;;;;;;;;;;;;;;;16.33;79.00;101568.56;5024583;28;19917;-57
2022/10/25 12:39:01;;;;;;;;;;;;;;;16.46;78.41;101580.41;5024652;28;19945;-58
2022/10/25 12:41:28;;;;;;;;;;;;;;;16.59;77.99;101575.19;5027553;28;20281;-58